createdAt,value
2022-11-18T00:31:29.984Z,9.52
2022-11-18T00:32:31.875Z,9.59
2022-11-18T00:33:36.164Z,8.67
2022-11-18T00:34:38.159Z,9.35
2022-11-18T00:35:40.019Z,9.46
2022-11-18T00:36:45.823Z,8.75
2022-11-18T00:37:47.741Z,9.23
2022-11-18T00:38:49.608Z,8.97
2022-11-18T00:39:51.559Z,9.11
2022-11-18T00:41:06.617Z,8.67
2022-11-18T00:42:08.533Z,8.66
2022-11-18T00:43:10.698Z,8.57
2022-11-18T00:44:12.568Z,8.25
2022-11-18T00:45:14.656Z,8.41
2022-11-18T00:46:16.938Z,8.37
2022-11-18T00:47:18.789Z,8.91
2022-11-18T00:48:20.973Z,7.92
2022-11-18T00:49:22.931Z,8.03
2022-11-18T00:50:24.925Z,7.89
2022-11-18T00:51:26.797Z,7.97
2022-11-18T00:52:28.770Z,9.25
2022-11-18T00:53:30.618Z,8.60
2022-11-18T00:54:32.491Z,9.53
2022-11-18T00:55:34.376Z,8.05
2022-11-18T00:56:36.437Z,8.29
2022-11-18T00:57:38.313Z,9.14
2022-11-18T00:58:40.189Z,8.87
2022-11-18T00:59:42.039Z,8.96
2022-11-18T01:00:46.166Z,8.41
2022-11-18T01:01:48.137Z,8.91
2022-11-18T01:02:50.347Z,8.81
2022-11-18T01:03:52.623Z,8.55
2022-11-18T01:04:54.509Z,8.85
2022-11-18T01:05:57.097Z,8.23
2022-11-18T01:06:59.180Z,8.90
2022-11-18T01:08:01.541Z,9.23
2022-11-18T01:09:03.725Z,8.91
2022-11-18T01:10:06.150Z,9.40
2022-11-18T01:11:09.230Z,8.91
2022-11-18T01:12:11.733Z,8.91
2022-11-18T01:13:19.066Z,9.37
2022-11-18T01:14:26.143Z,8.68
2022-11-18T01:15:28.041Z,8.82
2022-11-18T01:16:30.014Z,9.17
2022-11-18T01:17:32.080Z,9.33
2022-11-18T01:18:33.951Z,8.95
2022-11-18T01:19:36.217Z,8.96
2022-11-18T01:20:38.880Z,9.90
2022-11-18T01:21:40.747Z,9.93
2022-11-18T01:22:42.640Z,9.13
2022-11-18T01:23:44.851Z,8.87
2022-11-18T01:24:46.769Z,9.41
2022-11-18T01:25:50.103Z,9.07
2022-11-18T01:26:52.079Z,9.43
2022-11-18T01:27:54.357Z,8.62
2022-11-18T01:28:57.396Z,9.31
2022-11-18T01:29:59.268Z,9.34
2022-11-18T01:31:07.133Z,8.91
2022-11-18T01:32:23.828Z,8.44
2022-11-18T01:33:12.830Z,9.00
2022-11-18T01:34:14.699Z,7.97
2022-11-18T01:35:16.606Z,9.50
2022-11-18T01:36:24.751Z,9.69
2022-11-18T01:37:26.689Z,9.14
2022-11-18T01:38:28.695Z,9.48
2022-11-18T01:39:30.688Z,9.00
2022-11-18T01:40:34.042Z,9.69
2022-11-18T01:41:35.925Z,8.65
2022-11-18T01:42:38.705Z,8.63
2022-11-18T01:46:16.284Z,8.47
2022-11-18T01:47:19.072Z,8.42
2022-11-18T01:48:27.477Z,8.45
2022-11-18T01:49:29.387Z,9.42
2022-11-18T01:50:33.862Z,9.37
2022-11-18T01:51:42.385Z,9.25
2022-11-18T01:52:50.318Z,10.10
2022-11-18T01:53:59.680Z,9.77
2022-11-18T01:55:05.446Z,9.23
2022-11-18T01:56:14.726Z,9.34
2022-11-18T01:57:20.211Z,8.40
2022-11-18T01:58:28.870Z,9.36
2022-11-18T01:59:35.071Z,9.40
2022-11-18T02:00:39.000Z,8.63
2022-11-18T02:01:41.398Z,8.96
2022-11-18T02:02:44.545Z,9.09
2022-11-18T02:03:50.561Z,8.72
2022-11-18T02:04:55.893Z,8.97
2022-11-18T02:06:00.533Z,8.23
2022-11-18T02:07:04.207Z,8.50
2022-11-18T02:08:07.464Z,8.09
2022-11-18T02:09:10.120Z,8.43
2022-11-18T02:10:21.683Z,8.72
2022-11-18T02:12:25.957Z,8.94
2022-11-18T02:13:28.303Z,9.11
2022-11-18T02:14:34.187Z,9.35
2022-11-18T02:15:52.292Z,9.18
2022-11-18T02:16:58.387Z,9.28
2022-11-18T02:18:13.622Z,8.04
2022-11-18T02:19:54.499Z,9.07
2022-11-18T02:21:17.452Z,8.28
2022-11-18T02:22:29.190Z,9.32
2022-11-18T02:23:37.877Z,8.38
2022-11-18T02:24:43.736Z,8.57
2022-11-18T02:25:58.422Z,8.37
2022-11-18T02:27:31.946Z,8.23
2022-11-18T02:29:11.577Z,8.13
2022-11-18T02:30:16.334Z,8.58
2022-11-18T02:31:28.055Z,8.99
2022-11-18T02:32:36.313Z,9.03
2022-11-18T02:33:50.481Z,9.11
2022-11-18T02:35:08.402Z,8.89
2022-11-18T02:36:20.182Z,8.55
2022-11-18T02:37:26.392Z,8.22
2022-11-18T02:38:38.751Z,8.20
2022-11-18T02:39:54.182Z,8.43
2022-11-18T02:41:00.265Z,8.57
2022-11-18T02:42:06.328Z,8.27
2022-11-18T02:43:12.531Z,8.13
2022-11-18T02:44:17.067Z,9.27
2022-11-18T02:45:22.873Z,8.32
2022-11-18T02:46:30.115Z,8.18
2022-11-18T02:47:35.388Z,9.13
2022-11-18T02:48:41.262Z,8.85
2022-11-18T02:49:50.388Z,8.23
2022-11-18T02:50:54.701Z,8.61
2022-11-18T02:51:59.215Z,9.56
2022-11-18T02:53:04.244Z,9.21
2022-11-18T02:54:10.706Z,8.71
2022-11-18T02:55:14.983Z,9.51
2022-11-18T02:56:20.979Z,10.07
2022-11-18T02:57:25.175Z,10.22
2022-11-18T02:58:27.478Z,9.24
2022-11-18T02:59:31.134Z,8.74
2022-11-18T03:00:35.400Z,9.10
2022-11-18T03:01:37.939Z,8.47
2022-11-18T03:02:46.764Z,8.26
2022-11-18T03:03:49.099Z,8.44
2022-11-18T03:04:54.932Z,8.48
2022-11-18T03:08:47.125Z,8.19
2022-11-18T03:09:52.028Z,8.61
2022-11-18T03:11:01.774Z,7.89
2022-11-18T03:12:29.061Z,7.70
2022-11-18T03:15:03.970Z,7.46
2022-11-18T03:16:13.004Z,7.94
2022-11-18T03:17:42.556Z,8.43
2022-11-18T03:18:54.572Z,8.11
2022-11-18T03:20:30.971Z,8.54
2022-11-18T03:21:42.517Z,7.97
2022-11-18T03:24:14.061Z,8.21
2022-11-18T03:28:01.981Z,8.79
2022-11-18T03:29:16.992Z,9.19
2022-11-18T03:30:22.891Z,8.14
2022-11-18T03:31:29.952Z,8.68
2022-11-18T03:32:35.778Z,9.08
2022-11-18T03:33:47.922Z,7.75
2022-11-18T03:34:54.027Z,7.81
2022-11-18T03:35:58.936Z,8.34
2022-11-18T03:37:10.056Z,7.84
2022-11-18T03:38:15.138Z,7.32
2022-11-18T03:39:20.357Z,9.17
2022-11-18T03:40:26.261Z,8.47
2022-11-18T03:41:32.851Z,8.67
2022-11-18T03:42:50.628Z,8.14
2022-11-18T03:46:13.891Z,8.37
2022-11-18T03:47:19.648Z,8.38
2022-11-18T03:48:31.428Z,8.56
2022-11-18T03:49:37.105Z,8.32
2022-11-18T03:50:49.193Z,8.92
2022-11-18T03:51:57.903Z,8.79
2022-11-18T03:53:01.606Z,8.44
2022-11-18T03:54:10.689Z,8.58
2022-11-18T03:55:16.353Z,8.62
2022-11-18T03:56:22.556Z,8.71
2022-11-18T03:57:47.750Z,8.52
2022-11-18T03:59:08.582Z,9.14
2022-11-18T04:00:13.723Z,8.50
2022-11-18T04:01:19.570Z,9.74
2022-11-18T04:02:24.884Z,8.64
2022-11-18T04:03:27.358Z,8.55
2022-11-18T04:04:29.677Z,9.17
2022-11-18T04:05:35.329Z,8.71
2022-11-18T04:06:43.778Z,8.91
2022-11-18T04:07:52.297Z,7.88
2022-11-18T04:08:57.966Z,7.78
2022-11-18T04:10:09.413Z,7.84
2022-11-18T04:12:22.480Z,7.53
2022-11-18T04:13:33.559Z,7.81
2022-11-18T04:14:41.336Z,7.56
2022-11-18T04:15:43.830Z,7.78
2022-11-18T04:16:49.665Z,7.70
2022-11-18T04:17:53.656Z,7.04
2022-11-18T04:18:55.554Z,7.54
2022-11-18T04:19:57.446Z,7.25
2022-11-18T04:20:59.403Z,8.05
2022-11-18T04:22:01.287Z,7.56
2022-11-18T04:23:04.688Z,7.98
2022-11-18T04:24:07.592Z,8.44
2022-11-18T04:25:09.566Z,8.14
2022-11-18T04:26:11.631Z,8.17
2022-11-18T04:27:13.814Z,8.07
2022-11-18T04:28:15.664Z,8.15
2022-11-18T04:29:17.918Z,7.48
2022-11-18T04:30:20.916Z,8.73
2022-11-18T04:31:23.086Z,9.09
2022-11-18T04:32:24.978Z,8.26
2022-11-18T04:33:27.262Z,8.18
2022-11-18T04:34:29.773Z,8.27
2022-11-18T04:35:31.624Z,8.18
2022-11-18T04:36:33.895Z,7.44
2022-11-18T04:37:36.065Z,7.54
2022-11-18T04:38:37.943Z,8.01
2022-11-18T04:39:39.794Z,6.83
2022-11-18T04:40:42.409Z,7.38
2022-11-18T04:41:44.774Z,7.23
2022-11-18T04:42:46.665Z,6.83
2022-11-18T04:43:48.529Z,7.61
2022-11-18T04:44:50.381Z,7.77
2022-11-18T04:45:52.276Z,7.13
2022-11-18T04:46:56.169Z,7.43
2022-11-18T04:48:03.329Z,7.42
2022-11-18T04:49:01.841Z,7.38
2022-11-18T05:54:30.359Z,10.41
2022-11-18T05:55:56.498Z,11.53
2022-11-18T05:56:58.678Z,10.71
2022-11-18T05:58:00.522Z,9.84
2022-11-18T05:59:03.172Z,11.13
2022-11-18T06:00:06.512Z,11.47
2022-11-18T06:01:11.250Z,10.37
2022-11-18T06:02:19.827Z,10.79
2022-11-18T06:03:30.568Z,10.48
2022-11-18T06:04:42.256Z,11.42
2022-11-18T06:05:44.883Z,9.23
2022-11-18T06:06:49.659Z,11.05
2022-11-18T06:07:56.630Z,10.17
2022-11-18T06:09:04.670Z,10.36
2022-11-18T06:10:09.182Z,10.82
2022-11-18T06:11:14.195Z,10.01
2022-11-18T06:12:20.303Z,10.20
2022-11-18T06:13:26.025Z,9.82
2022-11-18T06:14:37.810Z,9.78
2022-11-18T06:15:42.892Z,9.26
2022-11-18T06:16:51.849Z,9.48
2022-11-18T06:18:00.503Z,9.18
2022-11-18T06:19:05.245Z,9.56
2022-11-18T06:20:09.878Z,9.19
2022-11-18T06:21:12.287Z,9.29
2022-11-18T06:22:14.684Z,9.24
2022-11-18T06:23:17.048Z,9.31
2022-11-18T06:24:19.315Z,9.85
2022-11-18T06:25:22.589Z,9.35
2022-11-18T06:26:24.799Z,9.41
2022-11-18T06:27:28.522Z,9.48
2022-11-18T06:28:31.024Z,9.21
2022-11-18T06:29:32.928Z,10.31
2022-11-18T06:30:34.916Z,9.10
2022-11-18T06:31:36.778Z,8.93
2022-11-18T06:32:38.924Z,8.31
2022-11-18T06:33:40.807Z,8.65
2022-11-18T06:34:42.668Z,8.67
2022-11-18T06:35:44.847Z,8.57
2022-11-18T06:36:46.817Z,8.19
2022-11-18T06:37:48.978Z,8.46
2022-11-18T06:38:51.032Z,7.89
2022-11-18T06:39:52.908Z,7.92
2022-11-18T06:41:00.987Z,7.96
2022-11-18T06:42:03.316Z,8.04
2022-11-18T06:43:06.902Z,8.61
2022-11-18T06:44:11.421Z,8.07
2022-11-18T06:45:13.352Z,7.48
2022-11-18T06:46:17.308Z,8.26
2022-11-18T06:47:19.317Z,8.64
2022-11-18T06:48:21.199Z,8.29
2022-11-18T06:49:24.523Z,8.19
2022-11-18T06:50:27.749Z,7.44
2022-11-18T06:51:47.856Z,7.37
2022-11-18T06:52:49.816Z,7.97
2022-11-18T06:53:52.689Z,8.32
2022-11-18T06:54:54.722Z,7.14
2022-11-18T06:55:56.575Z,7.67
2022-11-18T06:56:58.598Z,8.15
2022-11-18T06:58:00.475Z,7.92
2022-11-18T06:59:02.636Z,6.85
2022-11-18T07:00:06.619Z,7.29
2022-11-18T07:01:14.421Z,7.25
2022-11-18T07:02:16.627Z,7.47
2022-11-18T07:03:18.481Z,8.01
2022-11-18T07:04:20.353Z,8.13
2022-11-18T07:05:22.311Z,7.61
2022-11-18T07:06:27.174Z,7.95
2022-11-18T07:07:29.282Z,7.38
2022-11-18T07:08:31.285Z,8.16
2022-11-18T07:09:36.881Z,7.88
2022-11-18T07:10:38.911Z,7.81
2022-11-18T07:11:41.960Z,6.75
2022-11-18T07:12:44.860Z,7.02
2022-11-18T07:13:47.216Z,7.24
2022-11-18T07:14:49.082Z,6.99
2022-11-18T07:15:51.029Z,6.82
2022-11-18T07:16:53.019Z,7.07
2022-11-18T07:17:54.999Z,6.83
2022-11-18T07:18:57.186Z,6.65
2022-11-18T07:19:59.178Z,7.07
2022-11-18T07:21:02.678Z,7.11
2022-11-18T07:22:04.677Z,7.13
2022-11-18T07:23:06.560Z,7.43
2022-11-18T07:24:14.284Z,7.26
2022-11-18T07:25:16.220Z,6.82
2022-11-18T07:26:19.841Z,7.03
2022-11-18T07:27:21.711Z,6.87
2022-11-18T07:28:24.303Z,7.72
2022-11-18T07:29:26.365Z,7.82
2022-11-18T07:30:28.403Z,6.37
2022-11-18T07:31:30.731Z,8.13
2022-11-18T07:32:32.706Z,7.65
2022-11-18T07:33:36.119Z,8.09
2022-11-18T07:34:38.041Z,7.46
2022-11-18T07:35:40.163Z,8.26
2022-11-18T07:36:42.743Z,6.74
2022-11-18T07:37:44.716Z,7.53
2022-11-18T07:38:47.571Z,7.16
2022-11-18T07:39:49.452Z,7.33
2022-11-18T07:40:51.398Z,7.27
2022-11-18T07:41:53.329Z,7.39
2022-11-18T07:42:56.056Z,7.77
2022-11-18T07:44:01.003Z,7.29
2022-11-18T07:45:03.804Z,7.47
2022-11-18T07:46:15.397Z,7.54
2022-11-18T07:47:18.198Z,8.92
2022-11-18T07:48:20.178Z,8.88
2022-11-18T07:49:22.170Z,8.21
2022-11-18T07:50:24.121Z,8.43
2022-11-18T07:53:42.777Z,8.90
2022-11-18T07:54:44.761Z,8.46
2022-11-18T07:55:47.240Z,8.72
2022-11-18T07:56:49.517Z,8.68
2022-11-18T07:57:51.519Z,8.75
2022-11-18T07:58:55.116Z,9.93
2022-11-18T07:59:57.022Z,8.49
2022-11-18T08:01:01.078Z,8.55
2022-11-18T08:02:03.204Z,8.89
2022-11-18T08:03:05.194Z,8.48
2022-11-18T08:06:22.520Z,8.81
2022-11-18T08:07:24.486Z,8.27
2022-11-18T08:08:27.052Z,8.21
2022-11-18T08:09:29.150Z,7.18
2022-11-18T08:10:31.315Z,7.80
2022-11-18T08:11:34.047Z,7.61
2022-11-18T08:12:36.042Z,6.66
2022-11-18T08:13:38.162Z,7.27
2022-11-18T08:14:40.135Z,7.81
2022-11-18T08:15:43.938Z,7.57
2022-11-18T08:16:46.028Z,7.86
2022-11-18T08:17:47.912Z,7.71
2022-11-18T08:18:50.928Z,8.11
2022-11-18T08:19:52.812Z,8.79
2022-11-18T08:20:54.774Z,8.53
2022-11-18T08:21:56.623Z,8.67
2022-11-18T08:22:58.516Z,8.89
2022-11-18T08:24:00.373Z,8.33
2022-11-18T08:25:02.251Z,7.40
2022-11-18T08:26:10.555Z,7.59
2022-11-18T08:27:13.518Z,7.97
2022-11-18T08:28:15.559Z,7.13
2022-11-18T08:29:21.890Z,7.89
2022-11-18T08:30:21.613Z,7.31
2022-11-18T08:31:26.547Z,7.58
2022-11-18T08:32:29.288Z,6.73
2022-11-18T08:33:31.194Z,7.58
2022-11-18T08:34:33.478Z,7.99
2022-11-18T08:35:35.391Z,7.78
2022-11-18T08:36:38.367Z,7.48
2022-11-18T08:37:40.572Z,7.66
2022-11-18T08:38:42.778Z,7.86
2022-11-18T08:39:44.752Z,7.29
2022-11-18T08:40:47.064Z,7.02
2022-11-18T08:41:49.063Z,8.64
2022-11-18T08:42:51.909Z,8.02
2022-11-18T08:43:53.959Z,8.29
2022-11-18T08:44:55.932Z,9.26
2022-11-18T08:45:57.799Z,8.45
2022-11-18T08:47:00.550Z,8.95
2022-11-18T08:48:02.707Z,8.81
2022-11-18T08:49:05.119Z,8.79
2022-11-18T08:50:10.121Z,8.76
2022-11-18T08:51:12.938Z,8.83
2022-11-18T08:52:15.014Z,8.05
2022-11-18T08:53:17.124Z,7.58
2022-11-18T08:54:19.758Z,7.90
2022-11-18T08:55:21.626Z,8.13
2022-11-18T08:56:25.041Z,7.37
2022-11-18T08:57:27.340Z,7.94
2022-11-18T08:58:30.314Z,8.27
2022-11-18T08:59:34.397Z,8.47
2022-11-18T09:00:36.424Z,8.16
2022-11-18T09:01:38.963Z,7.99
2022-11-18T09:02:44.327Z,8.01
2022-11-18T09:03:46.442Z,8.31
2022-11-18T09:04:49.723Z,7.83
2022-11-18T09:05:51.774Z,8.18
2022-11-18T09:06:53.810Z,7.25
2022-11-18T09:07:55.881Z,7.44
2022-11-18T09:09:00.788Z,6.93
2022-11-18T09:10:01.535Z,6.93
2022-11-18T09:11:12.280Z,6.85
2022-11-18T09:12:14.250Z,7.08
2022-11-18T09:13:47.524Z,7.03
2022-11-18T09:15:11.648Z,6.58
2022-11-18T09:15:24.238Z,7.07
2022-11-18T09:16:28.691Z,7.81
2022-11-18T09:17:31.726Z,7.28
2022-11-18T09:18:33.894Z,7.60
2022-11-18T09:19:51.304Z,7.49
2022-11-18T09:20:39.759Z,7.16
2022-11-18T09:21:41.623Z,7.49
2022-11-18T09:22:43.670Z,6.67
2022-11-18T09:23:45.753Z,7.53
2022-11-18T09:24:47.608Z,7.73
2022-11-18T09:28:12.595Z,6.80
2022-11-18T09:29:14.485Z,7.37
2022-11-18T09:30:16.514Z,7.33
2022-11-18T09:31:18.642Z,7.03
2022-11-18T09:32:20.541Z,6.93
2022-11-18T09:33:23.005Z,7.73
2022-11-18T09:34:24.898Z,7.21
2022-11-18T09:35:26.782Z,7.01
2022-11-18T09:36:29.019Z,6.71
2022-11-18T09:37:32.613Z,7.39
2022-11-18T09:38:34.532Z,6.77
2022-11-18T09:39:36.826Z,7.69
2022-11-18T09:40:57.811Z,7.55
2022-11-18T09:45:08.597Z,7.65
2022-11-18T09:46:38.473Z,8.32
2022-11-18T09:47:40.433Z,7.46
2022-11-18T09:48:42.604Z,7.73
2022-11-18T09:49:45.968Z,8.05
2022-11-18T09:50:49.995Z,7.49
2022-11-18T09:51:53.079Z,7.02
2022-11-18T09:53:01.460Z,7.41
2022-11-18T09:54:03.369Z,7.82
2022-11-18T09:55:13.571Z,7.21
2022-11-18T09:56:16.525Z,8.17
2022-11-18T09:57:38.072Z,7.54
2022-11-18T09:58:40.406Z,7.52
2022-11-18T09:59:43.301Z,7.52
2022-11-18T10:00:45.285Z,6.87
2022-11-18T10:01:50.284Z,8.33
2022-11-18T10:03:08.327Z,6.76
2022-11-18T10:04:16.233Z,7.56
2022-11-18T10:05:24.600Z,8.32
2022-11-18T10:06:30.238Z,7.61
2022-11-18T16:17:46.002Z,11.11
2022-11-18T16:18:47.880Z,11.05
2022-11-18T16:19:49.765Z,11.80
2022-11-18T16:20:55.479Z,11.65
2022-11-18T16:21:57.437Z,11.71
2022-11-18T16:22:59.367Z,11.15
2022-11-18T16:24:05.048Z,10.99
2022-11-18T16:25:09.936Z,11.83
2022-11-18T16:26:12.081Z,12.37
2022-11-18T16:27:13.944Z,11.15
2022-11-18T16:28:16.001Z,12.74
2022-11-18T16:29:18.750Z,11.12
2022-11-18T16:30:22.315Z,11.93
2022-11-18T16:31:24.904Z,11.22
2022-11-18T16:32:26.783Z,11.05
2022-11-18T16:33:28.664Z,11.83
2022-11-18T16:34:30.544Z,11.39
2022-11-18T16:35:32.442Z,11.15
2022-11-18T16:36:35.703Z,11.19
2022-11-18T16:37:37.585Z,10.44
2022-11-18T16:38:39.448Z,10.47
2022-11-18T16:39:41.628Z,10.72
2022-11-18T16:40:43.767Z,10.62
2022-11-18T16:41:45.935Z,10.25
2022-11-18T16:42:52.709Z,10.79
2022-11-18T16:43:54.609Z,10.94
2022-11-18T16:44:56.516Z,10.43
2022-11-18T16:45:58.379Z,10.19
2022-11-18T16:47:00.342Z,10.07
2022-11-18T16:48:02.860Z,10.81
2022-11-18T16:49:05.324Z,10.22
2022-11-18T16:50:09.610Z,10.24
2022-11-18T16:51:19.931Z,10.44
2022-11-18T16:52:22.246Z,10.94
2022-11-18T16:53:24.123Z,10.23
2022-11-18T16:54:28.583Z,9.89
2022-11-18T16:55:30.520Z,10.58
2022-11-18T16:56:34.808Z,10.87
2022-11-18T16:57:36.831Z,10.08
2022-11-18T16:58:38.697Z,10.25
2022-11-18T16:59:40.581Z,10.23
2022-11-18T17:01:15.941Z,10.34
2022-11-18T17:01:48.882Z,10.76
2022-11-18T17:02:50.957Z,10.88
2022-11-18T17:03:54.127Z,11.16
2022-11-18T17:04:56.013Z,10.84
2022-11-18T17:06:00.297Z,10.98
2022-11-18T17:07:03.083Z,10.00
2022-11-18T17:08:05.051Z,10.75
2022-11-18T17:09:09.331Z,10.32
2022-11-18T17:10:11.338Z,10.46
2022-11-18T17:11:13.203Z,10.25
2022-11-18T17:12:15.085Z,10.44
2022-11-18T17:13:17.177Z,11.16
2022-11-18T17:14:19.199Z,10.17
2022-11-18T17:15:21.231Z,9.60
2022-11-18T17:16:23.685Z,10.65
2022-11-18T17:17:25.695Z,10.69
2022-11-18T17:18:27.561Z,10.50
2022-11-18T17:19:29.422Z,10.70
2022-11-18T17:20:33.273Z,10.99
2022-11-18T17:21:35.217Z,10.75
2022-11-18T17:22:38.103Z,10.25
2022-11-18T17:23:40.681Z,11.18
2022-11-18T17:24:42.679Z,9.93
2022-11-18T17:25:44.534Z,10.30
2022-11-18T17:26:47.139Z,10.01
2022-11-18T17:27:49.927Z,10.74
2022-11-18T17:28:52.415Z,10.68
2022-11-18T17:29:54.294Z,10.08
2022-11-18T17:30:57.967Z,10.63
2022-11-18T17:32:00.101Z,10.24
2022-11-18T17:33:02.065Z,10.70
2022-11-18T17:34:04.544Z,11.13
2022-11-18T17:35:08.194Z,10.07
2022-11-18T17:36:13.105Z,10.96
2022-11-18T17:37:16.165Z,10.87
2022-11-18T17:38:18.088Z,10.53
2022-11-18T17:39:20.075Z,10.67
2022-11-18T17:40:22.334Z,11.71
2022-11-18T17:41:27.395Z,11.29
2022-11-18T17:42:29.305Z,11.52
2022-11-18T17:43:31.548Z,11.33
2022-11-18T17:44:33.434Z,11.83
2022-11-18T17:45:39.091Z,11.43
2022-11-18T17:46:41.790Z,12.99
2022-11-18T17:47:43.783Z,12.89
2022-11-18T17:48:45.672Z,12.43
2022-11-18T17:49:47.548Z,11.55
2022-11-18T22:15:21.350Z,15.08
2022-11-18T22:18:41.801Z,14.70
2022-11-18T22:19:43.827Z,16.33
2022-11-18T22:20:45.804Z,16.29
2022-11-18T22:21:47.692Z,15.23
2022-11-18T22:22:49.650Z,15.31
2022-11-18T22:23:51.601Z,17.56
2022-11-18T22:24:53.466Z,15.34
2022-11-18T22:25:59.167Z,16.14
2022-11-18T22:27:01.288Z,15.80
2022-11-18T22:28:03.429Z,15.35
2022-11-18T22:29:05.630Z,15.63
2022-11-18T22:30:09.316Z,14.94
2022-11-18T22:31:13.744Z,14.70
2022-11-18T22:32:15.681Z,15.41
2022-11-18T22:33:17.564Z,14.97
2022-11-18T22:34:21.730Z,15.05
2022-11-18T22:35:23.644Z,15.94
2022-11-18T22:36:27.594Z,15.59
2022-11-18T22:37:29.687Z,15.36
2022-11-18T22:38:33.235Z,14.98
2022-11-18T22:39:35.180Z,15.89
2022-11-18T22:40:37.276Z,15.77
2022-11-18T22:41:39.143Z,15.65
2022-11-18T22:42:41.044Z,16.03
2022-11-18T22:43:42.907Z,14.74
2022-11-18T22:44:44.874Z,16.25
2022-11-18T22:45:46.743Z,14.61
2022-11-18T22:46:48.764Z,15.48
2022-11-18T22:47:50.627Z,14.70
2022-11-18T22:48:52.813Z,16.25
2022-11-18T22:49:56.560Z,15.33
2022-11-18T22:51:04.039Z,16.62
2022-11-18T22:52:06.396Z,15.27
2022-11-18T22:53:08.309Z,15.57
2022-11-18T22:54:37.052Z,14.93
2022-11-18T22:55:14.139Z,15.24
2022-11-18T22:56:18.858Z,15.41
2022-11-18T22:57:20.776Z,15.58
2022-11-18T22:58:24.462Z,14.83
2022-11-18T22:59:26.387Z,14.68
2022-11-18T23:00:28.341Z,14.21
2022-11-18T23:01:30.244Z,14.87
2022-11-18T23:02:32.420Z,14.52
2022-11-18T23:03:34.952Z,15.67
2022-11-18T23:04:36.865Z,16.57
2022-11-18T23:05:38.731Z,15.93
2022-11-18T23:06:40.718Z,14.49
2022-11-18T23:07:42.794Z,15.22
2022-11-18T23:08:45.111Z,16.53
2022-11-18T23:09:47.019Z,15.84
2022-11-18T23:10:49.539Z,16.61
2022-11-18T23:11:51.746Z,15.34
2022-11-18T23:12:53.623Z,15.66
2022-11-18T23:13:55.793Z,15.91
2022-11-18T23:14:57.669Z,14.95
2022-11-18T23:16:00.213Z,16.47
2022-11-18T23:17:04.212Z,15.47
2022-11-18T23:18:11.192Z,16.31
2022-11-18T23:19:15.868Z,17.32
2022-11-18T23:20:18.195Z,15.16
2022-11-18T23:21:20.136Z,16.42
2022-11-18T23:22:22.117Z,15.15
2022-11-18T23:23:24.009Z,15.72
2022-11-18T23:24:25.869Z,14.46
2022-11-18T23:25:27.832Z,14.83
2022-11-18T23:26:30.827Z,15.82
2022-11-18T23:27:32.693Z,15.46
2022-11-18T23:28:35.929Z,15.89
2022-11-18T23:29:37.863Z,14.94
2022-11-18T23:30:39.938Z,14.51
2022-11-18T23:31:43.710Z,15.84
2022-11-18T23:32:45.753Z,16.17
2022-11-18T23:33:48.460Z,15.87
2022-11-18T23:34:50.400Z,15.40
2022-11-18T23:35:52.230Z,14.78
2022-11-18T23:36:54.241Z,15.11
2022-11-18T23:37:56.102Z,15.07
2022-11-18T23:38:57.982Z,15.45
2022-11-18T23:39:59.853Z,16.02
2022-11-18T23:41:04.236Z,14.77
2022-11-18T23:42:06.155Z,15.92
2022-11-18T23:43:08.014Z,14.96
2022-11-18T23:44:09.872Z,16.32
2022-11-18T23:45:11.718Z,14.35
2022-11-18T23:46:16.812Z,14.93
2022-11-18T23:47:18.890Z,15.12
2022-11-18T23:48:21.542Z,15.07
2022-11-18T23:49:23.403Z,15.79
2022-11-18T23:50:25.384Z,15.29
2022-11-18T23:51:27.396Z,14.39
2022-11-18T23:52:29.230Z,15.17
2022-11-18T23:53:33.697Z,15.48
2022-11-18T23:54:35.591Z,14.60
2022-11-18T23:55:37.948Z,14.69
2022-11-18T23:56:39.930Z,14.78
2022-11-18T23:57:41.893Z,14.62
2022-11-18T23:58:46.044Z,15.44
2022-11-18T23:59:47.948Z,14.84
